createdAt,value
2022-12-20T00:01:22.576Z,47.49
2022-12-20T00:03:51.337Z,47.45
2022-12-20T00:06:18.874Z,47.39
2022-12-20T00:08:45.942Z,47.57
2022-12-20T00:11:13.485Z,47.76
2022-12-20T00:13:40.018Z,47.21
2022-12-20T00:16:08.938Z,47.67
2022-12-20T00:18:36.678Z,47.12
2022-12-20T00:21:04.730Z,47.36
2022-12-20T00:23:31.209Z,47.22
2022-12-20T00:26:05.947Z,47.45
2022-12-20T00:28:34.510Z,47.11
2022-12-20T00:31:02.817Z,47.54
2022-12-20T00:33:29.245Z,46.86
2022-12-20T00:35:56.829Z,46.97
2022-12-20T00:38:24.553Z,47.26
2022-12-20T00:41:06.435Z,47.13
2022-12-20T00:43:34.136Z,47.21
2022-12-20T00:46:01.391Z,46.94
2022-12-20T00:48:28.927Z,46.81
2022-12-20T00:51:00.581Z,46.99
2022-12-20T00:53:28.395Z,46.83
2022-12-20T00:55:54.893Z,47.01
2022-12-20T00:58:21.609Z,46.76
2022-12-20T01:00:54.091Z,46.82
2022-12-20T01:03:23.024Z,46.43
2022-12-20T01:05:54.834Z,46.95
2022-12-20T01:08:22.209Z,46.40
2022-12-20T01:11:06.980Z,46.41
2022-12-20T01:13:35.480Z,46.65
2022-12-20T01:16:10.496Z,46.17
2022-12-20T01:18:37.038Z,46.25
2022-12-20T01:21:05.902Z,46.47
2022-12-20T01:23:32.381Z,46.28
2022-12-20T01:26:04.859Z,46.24
2022-12-20T01:28:32.394Z,46.17
2022-12-20T01:30:58.960Z,46.66
2022-12-20T01:33:25.364Z,46.17
2022-12-20T01:36:00.472Z,46.35
2022-12-20T01:38:28.232Z,46.78
2022-12-20T01:40:55.821Z,46.17
2022-12-20T01:43:22.660Z,46.39
2022-12-20T01:45:49.153Z,46.40
2022-12-20T01:48:19.903Z,46.42
2022-12-20T01:50:48.115Z,46.23
2022-12-20T01:53:16.531Z,46.67
2022-12-20T01:55:43.015Z,46.22
2022-12-20T01:58:13.097Z,46.24
2022-12-20T02:00:39.655Z,46.22
2022-12-20T02:03:11.853Z,46.25
2022-12-20T02:05:42.300Z,46.10
2022-12-20T02:08:10.561Z,46.76
2022-12-20T02:11:17.719Z,46.65
2022-12-20T02:14:03.414Z,46.25
2022-12-20T02:16:36.469Z,46.19
2022-12-20T02:19:39.913Z,46.48
2022-12-20T02:22:40.941Z,46.14
2022-12-20T02:25:44.202Z,46.16
2022-12-20T02:28:47.652Z,46.47
2022-12-20T02:31:18.823Z,46.31
2022-12-20T02:33:49.368Z,46.42
2022-12-20T02:36:19.203Z,46.57
2022-12-20T02:38:45.846Z,46.65
2022-12-20T02:41:23.684Z,46.48
2022-12-20T02:44:13.816Z,46.51
2022-12-20T02:46:41.576Z,46.32
2022-12-20T02:49:13.939Z,46.49
2022-12-20T02:51:44.030Z,46.42
2022-12-20T02:54:12.355Z,46.76
2022-12-20T02:56:46.427Z,46.81
2022-12-20T02:59:24.828Z,46.61
2022-12-20T03:01:55.070Z,46.37
2022-12-20T03:04:26.367Z,46.50
2022-12-20T03:07:07.548Z,46.24
2022-12-20T03:09:38.513Z,46.69
2022-12-20T03:12:06.276Z,46.52
2022-12-20T03:14:32.724Z,46.35
2022-12-20T03:16:59.294Z,46.30
2022-12-20T03:19:25.760Z,46.26
2022-12-20T03:21:52.426Z,46.38
2022-12-20T03:24:21.576Z,46.80
2022-12-20T03:26:48.139Z,46.77
2022-12-20T03:29:14.622Z,46.83
2022-12-20T03:31:41.035Z,46.66
2022-12-20T03:34:07.632Z,46.56
2022-12-20T03:36:34.537Z,46.62
2022-12-20T03:39:01.126Z,46.59
2022-12-20T03:41:27.853Z,46.62
2022-12-20T03:43:54.432Z,46.80
2022-12-20T03:46:20.990Z,46.63
2022-12-20T03:48:47.390Z,46.83
2022-12-20T03:51:13.787Z,46.59
2022-12-20T03:53:40.129Z,46.58
2022-12-20T03:56:06.757Z,46.79
2022-12-20T03:58:33.292Z,46.55
2022-12-20T04:00:59.859Z,47.07
2022-12-20T04:03:26.604Z,47.17
2022-12-20T04:05:53.064Z,46.97
2022-12-20T04:08:19.617Z,47.21
2022-12-20T04:11:04.612Z,47.42
2022-12-20T04:13:30.976Z,47.12
2022-12-20T04:16:00.608Z,47.22
2022-12-20T04:18:27.495Z,47.34
2022-12-20T04:20:54.159Z,47.41
2022-12-20T04:23:20.605Z,47.45
2022-12-20T04:25:46.985Z,48.03
2022-12-20T04:28:13.986Z,47.87
2022-12-20T04:30:40.511Z,48.07
2022-12-20T04:33:06.889Z,47.55
2022-12-20T04:35:33.624Z,48.25
2022-12-20T04:37:59.936Z,48.23
2022-12-20T04:40:26.478Z,47.95
2022-12-20T04:42:52.944Z,47.97
2022-12-20T04:45:19.320Z,48.11
2022-12-20T04:47:45.734Z,48.25
2022-12-20T04:50:12.240Z,48.41
2022-12-20T04:52:57.258Z,48.33
2022-12-20T04:55:23.652Z,48.17
2022-12-20T04:57:50.027Z,48.23
2022-12-20T05:00:18.506Z,48.55
2022-12-20T05:02:44.966Z,48.52
2022-12-20T05:05:11.453Z,48.71
2022-12-20T05:07:38.202Z,48.72
2022-12-20T05:10:04.999Z,48.82
2022-12-20T05:12:31.534Z,48.57
2022-12-20T05:14:57.939Z,48.85
2022-12-20T05:17:24.309Z,48.64
2022-12-20T05:19:52.483Z,48.93
2022-12-20T05:22:37.214Z,49.05
2022-12-20T05:25:22.242Z,49.11
2022-12-20T05:27:48.609Z,48.98
2022-12-20T05:30:16.072Z,49.07
2022-12-20T05:32:42.607Z,49.05
2022-12-20T05:35:09.336Z,49.02
2022-12-20T05:37:35.714Z,49.26
2022-12-20T05:40:02.065Z,48.97
2022-12-20T05:42:28.409Z,49.35
2022-12-20T05:44:54.931Z,49.52
2022-12-20T05:47:21.375Z,49.48
2022-12-20T05:49:47.928Z,49.34
2022-12-20T05:52:14.424Z,49.40
2022-12-20T05:54:41.030Z,49.57
2022-12-20T05:57:07.383Z,49.47
2022-12-20T05:59:33.749Z,49.28
2022-12-20T06:02:00.170Z,49.33
2022-12-20T06:04:27.038Z,49.71
2022-12-20T06:06:53.380Z,49.64
2022-12-20T06:09:19.898Z,49.52
2022-12-20T06:11:47.486Z,49.69
2022-12-20T06:14:13.810Z,49.72
2022-12-20T06:16:40.215Z,49.69
2022-12-20T06:19:06.647Z,49.40
2022-12-20T06:21:33.728Z,49.49
2022-12-20T06:24:01.739Z,49.62
2022-12-20T06:26:29.456Z,49.35
2022-12-20T06:28:57.092Z,49.58
2022-12-20T06:31:23.528Z,49.64
2022-12-20T06:33:49.863Z,49.41
2022-12-20T06:36:16.305Z,49.23
2022-12-20T06:38:42.610Z,49.60
2022-12-20T06:41:09.005Z,49.29
2022-12-20T06:43:35.345Z,49.63
2022-12-20T06:46:01.730Z,49.30
2022-12-20T06:48:28.457Z,49.21
2022-12-20T06:50:56.363Z,49.06
2022-12-20T06:53:22.890Z,49.04
2022-12-20T06:55:50.606Z,49.06
2022-12-20T06:58:18.308Z,49.11
2022-12-20T07:00:45.293Z,49.17
2022-12-20T07:03:11.919Z,49.24
2022-12-20T07:05:38.360Z,49.06
2022-12-20T07:08:05.323Z,48.88
2022-12-20T07:10:34.284Z,48.70
2022-12-20T07:13:00.585Z,48.46
2022-12-20T07:15:26.978Z,48.60
2022-12-20T07:17:53.339Z,48.75
2022-12-20T07:20:19.911Z,48.49
2022-12-20T07:22:49.626Z,48.67
2022-12-20T07:25:16.131Z,48.29
2022-12-20T07:27:42.635Z,48.58
2022-12-20T07:30:10.436Z,48.33
2022-12-20T07:32:37.451Z,48.39
2022-12-20T07:35:04.080Z,47.98
2022-12-20T07:37:30.544Z,48.07
2022-12-20T07:39:57.240Z,48.46
2022-12-20T07:42:23.576Z,48.29
2022-12-20T07:44:50.527Z,48.04
2022-12-20T07:47:16.833Z,48.20
2022-12-20T07:49:43.322Z,47.80
2022-12-20T07:52:13.903Z,48.20
2022-12-20T07:54:48.481Z,47.78
2022-12-20T07:57:48.367Z,47.66
2022-12-20T08:00:15.831Z,47.51
2022-12-20T08:03:14.736Z,47.88
2022-12-20T08:05:44.202Z,47.79
2022-12-20T08:08:10.677Z,47.40
2022-12-20T08:10:38.665Z,47.82
2022-12-20T08:13:06.174Z,47.68
2022-12-20T08:15:34.835Z,47.84
2022-12-20T08:18:01.226Z,47.70
2022-12-20T08:20:27.604Z,47.24
2022-12-20T08:22:54.030Z,47.32
2022-12-20T08:25:21.688Z,47.35
2022-12-20T08:27:48.050Z,47.72
2022-12-20T08:30:14.745Z,47.36
2022-12-20T08:32:41.392Z,47.62
2022-12-20T08:35:08.281Z,47.01
2022-12-20T08:37:34.740Z,47.08
2022-12-20T08:40:01.116Z,47.41
2022-12-20T08:42:28.476Z,47.10
2022-12-20T08:44:55.713Z,47.11
2022-12-20T08:47:22.101Z,46.71
2022-12-20T08:49:48.424Z,47.09
2022-12-20T08:52:15.117Z,46.85
2022-12-20T08:54:41.462Z,46.85
2022-12-20T08:57:08.724Z,46.41
2022-12-20T08:59:35.054Z,46.28
2022-12-20T09:02:01.799Z,46.73
2022-12-20T09:04:28.197Z,46.71
2022-12-20T09:06:54.785Z,46.60
2022-12-20T09:09:21.185Z,46.77
2022-12-20T09:11:47.717Z,47.17
2022-12-20T09:14:14.144Z,47.04
2022-12-20T09:16:40.522Z,46.71
2022-12-20T09:19:07.108Z,46.60
2022-12-20T09:21:34.861Z,46.43
2022-12-20T09:24:01.512Z,46.91
2022-12-20T09:26:27.942Z,46.72
2022-12-20T09:28:54.535Z,46.62
2022-12-20T09:31:26.247Z,46.35
2022-12-20T09:33:57.893Z,46.71
2022-12-20T09:36:25.590Z,46.79
2022-12-20T09:38:52.293Z,46.71
2022-12-20T09:41:39.667Z,46.51
2022-12-20T09:44:24.072Z,46.00
2022-12-20T09:47:01.373Z,45.97
2022-12-20T09:49:36.463Z,46.26
2022-12-20T09:52:24.501Z,45.92
2022-12-20T09:55:00.477Z,46.07
2022-12-20T09:57:54.835Z,46.01
2022-12-20T10:00:21.638Z,45.88
2022-12-20T10:03:06.080Z,45.85
2022-12-20T10:05:45.847Z,45.52
2022-12-20T10:08:41.907Z,45.79
2022-12-20T10:11:41.947Z,45.96
2022-12-20T10:14:24.927Z,45.85
2022-12-20T10:16:58.488Z,45.84
2022-12-20T10:19:48.388Z,45.52
2022-12-20T10:22:21.563Z,45.82
2022-12-20T10:25:25.824Z,45.70
2022-12-20T10:27:57.146Z,45.74
2022-12-20T10:30:27.012Z,45.84
2022-12-20T10:32:55.868Z,46.18
2022-12-20T10:35:33.896Z,45.58
2022-12-20T10:38:09.577Z,45.57
2022-12-20T10:41:23.806Z,45.68
2022-12-20T10:43:45.556Z,45.61
2022-12-20T10:46:15.073Z,45.49
2022-12-20T10:48:43.593Z,45.64
2022-12-20T10:51:15.486Z,45.67
2022-12-20T10:53:56.566Z,45.28
2022-12-20T10:56:36.299Z,45.17
2022-12-20T10:59:17.765Z,45.57
2022-12-20T11:01:47.050Z,45.31
2022-12-20T11:04:33.856Z,45.12
2022-12-20T11:07:02.854Z,45.69
2022-12-20T11:09:36.589Z,45.51
2022-12-20T11:12:13.764Z,45.16
2022-12-20T11:14:41.969Z,45.54
2022-12-20T11:17:11.549Z,45.06
2022-12-20T11:19:58.326Z,45.02
2022-12-20T11:22:30.497Z,45.24
2022-12-20T11:25:03.027Z,45.24
2022-12-20T11:27:32.514Z,45.13
2022-12-20T11:30:13.419Z,45.13
2022-12-20T11:33:13.217Z,45.05
2022-12-20T11:36:03.175Z,44.80
2022-12-20T11:38:41.610Z,44.63
2022-12-20T11:41:32.848Z,44.95
2022-12-20T11:44:33.731Z,44.71
2022-12-20T11:47:15.536Z,44.72
2022-12-20T11:50:12.384Z,44.83
2022-12-20T11:53:08.256Z,44.70
2022-12-20T11:55:41.663Z,44.92
2022-12-20T11:58:21.648Z,44.63
2022-12-20T12:00:58.979Z,44.52
2022-12-20T12:03:35.411Z,44.37
2022-12-20T12:06:10.634Z,44.15
2022-12-20T12:08:43.900Z,44.47
2022-12-20T12:14:18.121Z,44.23
2022-12-20T12:16:51.115Z,44.37
2022-12-20T12:19:17.803Z,44.55
2022-12-20T12:21:55.608Z,44.47
2022-12-20T12:24:29.287Z,44.38
2022-12-20T12:26:59.663Z,44.38
2022-12-20T12:29:30.171Z,44.17
2022-12-20T12:32:14.627Z,44.12
2022-12-20T12:34:50.120Z,44.30
2022-12-20T12:37:39.760Z,44.13
2022-12-20T12:40:25.046Z,44.15
2022-12-20T12:43:21.781Z,44.08
2022-12-20T12:45:57.811Z,44.07
2022-12-20T12:48:42.478Z,43.99
2022-12-20T12:51:10.779Z,44.08
2022-12-20T12:53:51.339Z,44.27
2022-12-20T12:56:43.109Z,44.10
2022-12-20T12:59:13.050Z,44.04
2022-12-20T13:01:56.797Z,44.07
2022-12-20T13:04:27.372Z,44.31
2022-12-20T13:06:56.926Z,44.41
2022-12-20T13:09:26.336Z,44.52
2022-12-20T13:12:01.353Z,44.63
2022-12-20T13:14:31.167Z,44.85
2022-12-20T13:17:20.719Z,44.77
2022-12-20T13:19:57.707Z,44.84
2022-12-20T13:22:26.487Z,44.76
2022-12-20T13:25:03.025Z,44.94
2022-12-20T13:27:37.170Z,44.89
2022-12-20T13:30:13.724Z,44.89
2022-12-20T13:32:49.522Z,44.95
2022-12-20T13:35:25.108Z,44.84
2022-12-20T13:38:07.516Z,45.03
2022-12-20T13:40:39.394Z,44.91
2022-12-20T13:43:14.281Z,44.83
2022-12-20T13:45:46.351Z,45.09
2022-12-20T13:48:17.960Z,45.17
2022-12-20T13:50:52.241Z,45.37
2022-12-20T13:53:27.643Z,45.34
2022-12-20T13:55:55.088Z,45.15
2022-12-20T13:58:25.437Z,45.37
2022-12-20T14:00:54.341Z,45.48
2022-12-20T14:03:25.166Z,45.72
2022-12-20T14:06:04.051Z,45.92
2022-12-20T14:08:37.044Z,46.33
2022-12-20T14:11:46.212Z,46.41
2022-12-20T14:14:14.064Z,46.07
2022-12-20T14:16:40.535Z,46.33
2022-12-20T14:19:14.759Z,46.57
2022-12-20T14:21:43.664Z,46.45
2022-12-20T14:24:17.463Z,46.86
2022-12-20T14:26:51.401Z,46.54
2022-12-20T14:29:23.344Z,46.94
2022-12-20T14:31:51.502Z,46.71
2022-12-20T14:34:38.108Z,47.30
2022-12-20T14:37:19.724Z,47.40
2022-12-20T14:40:19.235Z,47.32
2022-12-20T14:42:53.254Z,46.79
2022-12-20T14:45:23.485Z,47.42
2022-12-20T14:47:55.984Z,47.10
2022-12-20T14:50:33.137Z,48.05
2022-12-20T14:53:00.209Z,47.25
2022-12-20T14:55:36.448Z,48.01
2022-12-20T14:58:22.971Z,47.84
2022-12-20T15:00:58.839Z,48.19
2022-12-20T15:03:25.913Z,47.64
2022-12-20T15:06:00.102Z,48.77
2022-12-20T15:08:33.071Z,48.38
2022-12-20T15:11:22.451Z,48.82
2022-12-20T15:13:54.423Z,48.95
2022-12-20T15:16:23.973Z,48.63
2022-12-20T15:18:53.306Z,48.83
2022-12-20T15:21:32.544Z,49.65
2022-12-20T15:24:02.155Z,48.93
2022-12-20T15:26:32.039Z,48.80
2022-12-20T15:28:58.460Z,48.74
2022-12-20T15:31:32.986Z,48.90
2022-12-20T15:34:06.727Z,49.29
2022-12-20T15:36:33.971Z,48.64
2022-12-20T15:39:12.395Z,48.94
2022-12-20T15:41:42.794Z,48.96
2022-12-20T15:44:19.928Z,49.59
2022-12-20T15:46:46.622Z,49.40
2022-12-20T15:49:16.075Z,49.28
2022-12-20T15:51:44.424Z,49.48
2022-12-20T15:54:27.863Z,50.43
2022-12-20T15:56:55.883Z,49.24
2022-12-20T15:59:58.436Z,49.27
2022-12-20T16:02:22.841Z,50.40
2022-12-20T16:04:50.500Z,49.64
2022-12-20T16:07:17.012Z,49.67
2022-12-20T16:09:43.511Z,49.76
2022-12-20T16:12:16.158Z,50.59
2022-12-20T16:14:42.520Z,49.87
2022-12-20T16:17:14.377Z,50.34
2022-12-20T16:19:42.365Z,49.92
2022-12-20T16:22:15.913Z,50.48
2022-12-20T16:24:43.574Z,50.10
2022-12-20T16:27:10.142Z,49.97
2022-12-20T16:29:36.769Z,50.18
2022-12-20T16:32:08.131Z,49.76
2022-12-20T16:34:34.455Z,50.25
2022-12-20T16:37:00.920Z,50.28
2022-12-20T16:39:27.445Z,50.24
2022-12-20T16:41:54.940Z,50.14
2022-12-20T16:44:22.933Z,50.24
2022-12-20T16:46:49.412Z,50.40
2022-12-20T16:49:20.433Z,50.09
2022-12-20T16:51:49.072Z,50.00
2022-12-20T16:54:22.340Z,50.42
2022-12-20T16:56:55.281Z,50.09
2022-12-20T16:59:25.484Z,49.95
2022-12-20T17:01:54.397Z,50.40
2022-12-20T17:04:21.613Z,50.19
2022-12-20T17:06:48.973Z,49.95
2022-12-20T17:12:00.136Z,50.08
2022-12-20T17:14:26.654Z,50.15
2022-12-20T17:16:53.249Z,50.30
2022-12-20T17:19:19.680Z,50.19
2022-12-20T17:24:32.858Z,50.25
2022-12-20T17:27:00.501Z,50.14
2022-12-20T17:29:27.077Z,50.38
2022-12-20T17:31:54.287Z,50.23
2022-12-20T17:34:24.130Z,50.06
2022-12-20T17:36:53.233Z,49.73
2022-12-20T17:39:20.262Z,49.88
2022-12-20T17:41:47.806Z,49.97
2022-12-20T17:44:23.681Z,50.33
2022-12-20T17:46:50.269Z,49.89
2022-12-20T17:49:17.158Z,49.55
2022-12-20T17:51:44.032Z,49.79
2022-12-20T17:54:18.674Z,49.80
2022-12-20T17:56:45.094Z,49.43
2022-12-20T17:59:12.700Z,49.77
2022-12-20T18:01:40.002Z,49.31
2022-12-20T18:04:09.721Z,49.85
2022-12-20T18:06:39.879Z,49.59
2022-12-20T18:09:15.789Z,49.83
2022-12-20T18:11:43.450Z,49.57
2022-12-20T18:14:10.698Z,49.45
2022-12-20T18:16:39.291Z,49.63
2022-12-20T18:19:07.066Z,49.86
2022-12-20T18:21:33.660Z,49.39
2022-12-20T18:24:00.182Z,49.80
2022-12-20T18:26:29.627Z,49.36
2022-12-20T18:28:58.381Z,49.94
2022-12-20T18:31:28.357Z,49.68
2022-12-20T18:33:58.413Z,49.85
2022-12-20T18:36:30.689Z,49.82
2022-12-20T18:38:58.753Z,49.76
2022-12-20T18:41:28.130Z,49.44
2022-12-20T18:44:00.169Z,49.45
2022-12-20T18:46:27.314Z,49.44
2022-12-20T18:48:56.041Z,49.70
2022-12-20T18:51:24.215Z,50.00
2022-12-20T18:53:55.115Z,49.47
2022-12-20T18:56:28.723Z,49.51
2022-12-20T18:59:04.549Z,49.60
2022-12-20T19:01:37.241Z,49.24
2022-12-20T19:04:06.395Z,49.61
2022-12-20T19:06:33.386Z,49.54
2022-12-20T19:09:03.969Z,49.91
2022-12-20T19:11:30.408Z,49.64
2022-12-20T19:13:56.915Z,49.70
2022-12-20T19:16:32.526Z,49.88
2022-12-20T19:19:00.468Z,49.49
2022-12-20T19:21:29.222Z,49.58
2022-12-20T19:23:59.639Z,49.76
2022-12-20T19:26:29.767Z,49.68
2022-12-20T19:28:57.228Z,49.35
2022-12-20T19:31:27.771Z,49.38
2022-12-20T19:34:00.601Z,49.91
2022-12-20T19:36:34.538Z,49.92
2022-12-20T19:39:04.707Z,49.58
2022-12-20T19:41:33.396Z,49.94
2022-12-20T19:44:00.141Z,49.95
2022-12-20T19:46:29.611Z,49.85
2022-12-20T19:48:58.078Z,49.57
2022-12-20T19:51:25.818Z,49.84
2022-12-20T19:53:54.643Z,49.75
2022-12-20T19:56:23.307Z,49.87
2022-12-20T19:58:49.869Z,49.72
2022-12-20T20:01:17.895Z,49.88
2022-12-20T20:03:45.553Z,49.84
2022-12-20T20:06:12.836Z,50.06
2022-12-20T20:08:40.506Z,50.00
2022-12-20T20:11:09.839Z,50.10
2022-12-20T20:13:38.084Z,50.10
2022-12-20T20:16:06.846Z,50.23
2022-12-20T20:18:35.082Z,50.10
2022-12-20T20:21:12.467Z,50.46
2022-12-20T20:23:38.986Z,50.11
2022-12-20T20:26:11.086Z,50.35
2022-12-20T20:28:44.479Z,50.19
2022-12-20T20:31:13.537Z,50.34
2022-12-20T20:33:40.246Z,50.43
2022-12-20T20:36:06.987Z,50.59
2022-12-20T20:38:35.637Z,50.43
2022-12-20T20:41:02.145Z,50.79
2022-12-20T20:43:29.600Z,50.33
2022-12-20T20:45:56.894Z,50.56
2022-12-20T20:48:23.689Z,50.22
2022-12-20T20:50:50.240Z,50.24
2022-12-20T20:53:16.580Z,50.42
2022-12-20T20:55:43.099Z,50.40
2022-12-20T20:58:12.282Z,50.51
2022-12-20T21:00:40.347Z,50.55
2022-12-20T21:03:06.882Z,50.49
2022-12-20T21:08:21.773Z,50.99
2022-12-20T21:10:49.365Z,51.14
2022-12-20T21:13:17.732Z,51.22
2022-12-20T21:15:46.535Z,50.76
2022-12-20T21:18:13.818Z,50.51
2022-12-20T21:20:40.294Z,50.87
2022-12-20T21:23:06.828Z,50.95
2022-12-20T21:25:33.195Z,51.29
2022-12-20T21:27:59.581Z,51.23
2022-12-20T21:30:26.052Z,51.06
2022-12-20T21:32:52.412Z,51.16
2022-12-20T21:35:18.810Z,51.15
2022-12-20T21:37:45.216Z,51.61
2022-12-20T21:40:12.102Z,51.60
2022-12-20T21:42:38.492Z,51.80
2022-12-20T21:45:07.648Z,51.70
2022-12-20T21:47:35.268Z,51.23
2022-12-20T21:50:01.766Z,51.49
2022-12-20T21:52:28.545Z,51.75
2022-12-20T21:54:54.903Z,51.45
2022-12-20T21:57:21.376Z,51.63
2022-12-20T21:59:47.758Z,52.06
2022-12-20T22:02:14.424Z,51.78
2022-12-20T22:04:40.818Z,52.06
2022-12-20T22:07:07.357Z,51.71
2022-12-20T22:09:33.778Z,52.06
2022-12-20T22:12:00.200Z,51.95
2022-12-20T22:14:26.553Z,52.02
2022-12-20T22:16:54.833Z,52.33
2022-12-20T22:19:21.595Z,52.23
2022-12-20T22:21:53.696Z,52.75
2022-12-20T22:24:24.136Z,52.57
2022-12-20T22:26:50.769Z,52.60
2022-12-20T22:29:17.138Z,52.62
2022-12-20T22:31:43.697Z,52.91
2022-12-20T22:34:10.306Z,52.70
2022-12-20T22:36:37.212Z,52.91
2022-12-20T22:39:03.837Z,53.13
2022-12-20T22:41:33.885Z,53.02
2022-12-20T22:44:00.566Z,53.20
2022-12-20T22:46:29.302Z,52.79
2022-12-20T22:48:56.486Z,53.17
2022-12-20T22:51:27.953Z,53.20
2022-12-20T22:53:54.513Z,52.94
2022-12-20T22:56:22.573Z,53.00
2022-12-20T22:58:50.270Z,53.06
2022-12-20T23:01:19.053Z,53.25
2022-12-20T23:03:46.457Z,53.35
2022-12-20T23:06:15.430Z,53.49
2022-12-20T23:08:42.787Z,53.33
2022-12-20T23:11:36.389Z,54.03
2022-12-20T23:14:22.816Z,53.53
2022-12-20T23:16:49.634Z,53.27
2022-12-20T23:19:16.345Z,53.39
2022-12-20T23:22:01.677Z,53.36
2022-12-20T23:24:28.084Z,53.23
2022-12-20T23:26:54.410Z,53.50
2022-12-20T23:29:20.796Z,53.42
2022-12-20T23:31:47.159Z,53.47
2022-12-20T23:34:13.549Z,53.42
2022-12-20T23:36:41.352Z,53.08
2022-12-20T23:39:08.402Z,53.22
2022-12-20T23:41:39.031Z,53.39
2022-12-20T23:44:06.107Z,53.37
2022-12-20T23:46:33.263Z,53.24
2022-12-20T23:48:59.723Z,53.65
2022-12-20T23:51:26.268Z,53.72
2022-12-20T23:53:52.828Z,53.17
2022-12-20T23:56:21.470Z,53.73
2022-12-20T23:58:52.789Z,54.38
